createdAt,value
2023-11-29T06:02:13.692Z,98430.66
2023-11-29T06:04:40.605Z,98428.09
2023-11-29T06:07:07.565Z,98431.50
2023-11-29T06:09:34.337Z,98429.72
2023-11-29T06:12:01.595Z,98435.81
2023-11-29T06:14:28.591Z,98429.72
2023-11-29T06:16:56.014Z,98429.78
2023-11-29T06:19:22.689Z,98429.72
2023-11-29T06:21:50.154Z,98433.16
2023-11-29T06:24:16.889Z,98425.19
2023-11-29T06:26:44.458Z,98425.28
2023-11-29T06:29:11.118Z,98425.22
2023-11-29T06:31:38.512Z,98425.28
2023-11-29T06:34:08.834Z,98429.59
2023-11-29T06:36:36.920Z,98417.25
2023-11-29T06:39:04.758Z,98424.94
2023-11-29T06:41:31.550Z,98421.47
2023-11-29T06:43:58.887Z,98420.66
2023-11-29T06:46:25.602Z,98416.22
2023-11-29T06:48:53.014Z,98419.78
2023-11-29T06:51:19.710Z,98414.47
2023-11-29T06:53:46.814Z,98418.88
2023-11-29T06:56:13.487Z,98418.78
2023-11-29T06:58:41.047Z,98405.75
2023-11-29T07:01:09.056Z,98405.75
2023-11-29T07:03:36.423Z,98407.44
2023-11-29T07:06:03.589Z,98409.97
2023-11-29T07:08:32.766Z,98405.66
2023-11-29T07:11:00.858Z,98410.03
2023-11-29T07:13:28.098Z,98407.28
2023-11-29T07:15:57.830Z,98410.78
2023-11-29T07:18:27.238Z,98400.25
2023-11-29T07:20:54.321Z,98404.75
2023-11-29T07:23:23.957Z,98398.63
2023-11-29T07:25:50.772Z,98397.69
2023-11-29T07:28:18.094Z,98406.34
2023-11-29T07:30:44.988Z,98401.19
2023-11-29T07:33:12.736Z,98407.25
2023-11-29T07:35:39.585Z,98405.47
2023-11-29T07:38:07.429Z,98395.09
2023-11-29T07:40:34.189Z,98394.16
2023-11-29T07:43:01.268Z,98395.97
2023-11-29T07:45:27.956Z,98392.38
2023-11-29T07:47:55.084Z,98387.22
2023-11-29T07:50:22.049Z,98393.19
2023-11-29T07:52:49.578Z,98393.91
2023-11-29T07:55:16.571Z,98390.41
2023-11-29T07:57:44.352Z,98393.91
2023-11-29T08:00:14.888Z,98399.09
2023-11-29T08:02:43.633Z,98394.63
2023-11-29T08:05:10.733Z,98397.22
2023-11-29T08:07:37.865Z,98391.91
2023-11-29T08:10:05.411Z,98382.22
2023-11-29T08:12:32.078Z,98386.66
2023-11-29T08:14:59.008Z,98384.78
2023-11-29T08:17:25.940Z,98382.97
2023-11-29T08:19:54.450Z,98378.50
2023-11-29T08:22:21.138Z,98379.34
2023-11-29T08:24:48.515Z,98380.19
2023-11-29T08:27:16.622Z,98379.16
2023-11-29T08:29:44.251Z,98365.09
2023-11-29T08:32:10.999Z,98371.19
2023-11-29T08:34:38.148Z,98366.78
2023-11-29T08:37:04.966Z,98357.19
2023-11-29T08:39:32.350Z,98366.72
2023-11-29T08:41:59.119Z,98355.53
2023-11-29T08:44:26.579Z,98367.69
2023-11-29T08:46:53.366Z,98369.50
2023-11-29T08:49:21.390Z,98359.94
2023-11-29T08:51:48.087Z,98363.44
2023-11-29T08:54:15.283Z,98359.84
2023-11-29T08:56:42.241Z,98356.41
2023-11-29T08:59:09.607Z,98366.78
2023-11-29T09:01:36.359Z,98364.09
2023-11-29T09:04:04.329Z,98369.25
2023-11-29T09:06:31.348Z,98365.84
2023-11-29T09:08:59.829Z,98364.03
2023-11-29T09:11:26.678Z,98366.66
2023-11-29T09:13:54.126Z,98357.94
2023-11-29T09:16:20.900Z,98359.66
2023-11-29T09:18:49.563Z,98365.78
2023-11-29T09:21:16.390Z,98365.63
2023-11-29T09:23:43.795Z,98368.16
2023-11-29T09:26:10.561Z,98355.97
2023-11-29T09:28:37.918Z,98362.03
2023-11-29T09:31:06.809Z,98361.31
2023-11-29T09:33:34.162Z,98366.44
2023-11-29T09:36:01.594Z,98368.25
2023-11-29T09:38:28.372Z,98373.50
2023-11-29T09:40:56.012Z,98371.78
2023-11-29T09:43:23.635Z,98377.16
2023-11-29T09:45:51.651Z,98377.13
2023-11-29T09:48:18.967Z,98384.97
2023-11-29T09:50:46.890Z,98382.34
2023-11-29T09:53:14.053Z,98366.53
2023-11-29T09:55:41.510Z,98366.53
2023-11-29T09:58:08.400Z,98368.16
2023-11-29T10:00:35.965Z,98378.56
2023-11-29T10:03:13.722Z,98380.09
2023-11-29T10:05:48.325Z,98382.66
2023-11-29T10:08:22.709Z,98370.31
2023-11-29T10:10:51.812Z,98385.09
2023-11-29T10:13:18.667Z,98380.81
2023-11-29T10:15:47.823Z,98376.50
2023-11-29T10:18:19.909Z,98386.88
2023-11-29T10:20:56.239Z,98390.22
2023-11-29T10:23:32.818Z,98388.44
2023-11-29T10:26:00.771Z,98388.34
2023-11-29T10:28:27.599Z,98397.88
2023-11-29T10:30:55.139Z,98403.22
2023-11-29T10:33:22.129Z,98401.56
2023-11-29T10:35:49.905Z,98404.31
2023-11-29T10:38:22.745Z,98407.03
2023-11-29T10:40:51.204Z,98414.13
2023-11-29T10:43:22.990Z,98415.00
2023-11-29T10:45:54.293Z,98417.63
2023-11-29T10:48:28.105Z,98425.38
2023-11-29T10:50:55.753Z,98424.13
2023-11-29T10:53:22.743Z,98426.31
2023-11-29T10:55:51.466Z,98413.91
2023-11-29T10:58:25.125Z,98423.13
2023-11-29T11:00:52.542Z,98420.59
2023-11-29T11:03:38.624Z,98424.25
2023-11-29T11:06:24.511Z,98431.59
2023-11-29T11:08:52.273Z,98434.22
2023-11-29T11:11:41.102Z,98445.47
2023-11-29T11:14:22.694Z,98442.03
2023-11-29T11:17:15.465Z,98443.84
2023-11-29T11:19:46.479Z,98445.59
2023-11-29T11:22:18.797Z,98453.44
2023-11-29T11:24:55.252Z,98459.56
2023-11-29T11:27:29.485Z,98457.78
2023-11-29T11:29:57.385Z,98459.66
2023-11-29T11:32:36.859Z,98470.06
2023-11-29T11:35:19.275Z,98469.28
2023-11-29T11:37:47.522Z,98472.00
2023-11-29T11:40:15.331Z,98470.34
2023-11-29T11:42:44.123Z,98472.97
2023-11-29T11:45:14.287Z,98466.00
2023-11-29T11:47:43.876Z,98470.44
2023-11-29T11:50:13.172Z,98480.75
2023-11-29T11:52:40.556Z,98475.19
2023-11-29T11:55:09.461Z,98477.34
2023-11-29T11:57:37.664Z,98471.03
2023-11-29T12:00:08.031Z,98484.50
2023-11-29T12:02:36.260Z,98483.78
2023-11-29T12:05:07.463Z,98482.09
2023-11-29T12:07:44.855Z,98489.94
2023-11-29T12:10:16.653Z,98503.66
2023-11-29T12:12:46.193Z,98508.81
2023-11-29T12:15:15.417Z,98502.94
2023-11-29T12:17:43.518Z,98512.53
2023-11-29T12:20:12.352Z,98520.38
2023-11-29T12:22:45.866Z,98523.84
2023-11-29T12:25:14.600Z,98523.97
2023-11-29T12:27:48.022Z,98520.38
2023-11-29T12:30:15.403Z,98527.44
2023-11-29T12:32:43.220Z,98535.47
2023-11-29T12:35:11.502Z,98538.09
2023-11-29T12:37:48.996Z,98546.84
2023-11-29T12:40:18.545Z,98538.03
2023-11-29T12:42:47.234Z,98536.31
2023-11-29T12:45:14.776Z,98546.72
2023-11-29T12:47:42.911Z,98538.72
2023-11-29T12:50:10.744Z,98547.25
2023-11-29T12:52:38.097Z,98542.81
2023-11-29T12:55:05.119Z,98556.59
2023-11-29T12:57:32.201Z,98556.88
2023-11-29T12:59:59.768Z,98573.88
2023-11-29T13:02:26.773Z,98574.91
2023-11-29T13:04:54.270Z,98579.06
2023-11-29T13:07:21.064Z,98579.13
2023-11-29T13:09:48.681Z,98587.19
2023-11-29T13:12:16.704Z,98581.34
2023-11-29T13:14:44.338Z,98586.50
2023-11-29T13:17:14.460Z,98579.53
2023-11-29T13:19:42.665Z,98594.50
2023-11-29T13:22:09.906Z,98605.00
2023-11-29T13:24:37.551Z,98606.78
2023-11-29T13:27:07.810Z,98608.81
2023-11-29T13:29:35.829Z,98602.09
2023-11-29T13:32:05.282Z,98604.84
2023-11-29T13:34:33.795Z,98605.97
2023-11-29T13:37:00.934Z,98613.97
2023-11-29T13:39:29.591Z,98611.41
2023-11-29T13:41:57.193Z,98616.69
2023-11-29T13:44:28.274Z,98620.94
2023-11-29T13:46:55.870Z,98627.09
2023-11-29T13:49:23.353Z,98627.94
2023-11-29T13:52:00.971Z,98634.97
2023-11-29T13:54:36.256Z,98632.50
2023-11-29T13:57:03.453Z,98639.69
2023-11-29T13:59:30.902Z,98644.00
2023-11-29T14:01:58.306Z,98648.34
2023-11-29T14:04:27.356Z,98645.81
2023-11-29T14:06:56.620Z,98648.34
2023-11-29T14:09:24.809Z,98652.78
2023-11-29T14:11:55.640Z,98650.16
2023-11-29T14:14:32.818Z,98651.72
2023-11-29T14:16:59.844Z,98646.56
2023-11-29T14:19:27.153Z,98651.94
2023-11-29T14:21:54.231Z,98660.56
2023-11-29T14:24:21.620Z,98657.91
2023-11-29T14:26:48.572Z,98667.53
2023-11-29T14:29:16.279Z,98663.00
2023-11-29T14:31:48.660Z,98672.59
2023-11-29T14:34:19.690Z,98673.53
2023-11-29T14:36:47.024Z,98678.78
2023-11-29T14:39:18.038Z,98675.31
2023-11-29T14:41:44.844Z,98672.75
2023-11-29T14:44:12.245Z,98684.16
2023-11-29T14:46:38.968Z,98684.25
2023-11-29T14:49:13.473Z,98687.88
2023-11-29T14:51:44.136Z,98688.97
2023-11-29T14:54:11.566Z,98686.44
2023-11-29T14:56:38.857Z,98699.59
2023-11-29T14:59:06.024Z,98699.63
2023-11-29T15:01:33.635Z,98704.84
2023-11-29T15:04:00.897Z,98701.38
2023-11-29T15:06:27.592Z,98706.63
2023-11-29T15:08:54.998Z,98704.94
2023-11-29T15:11:21.742Z,98710.09
2023-11-29T15:13:49.010Z,98704.06
2023-11-29T15:16:15.750Z,98711.91
2023-11-29T15:18:43.123Z,98716.25
2023-11-29T15:21:09.942Z,98713.69
2023-11-29T15:23:37.361Z,98711.94
2023-11-29T15:26:04.133Z,98703.28
2023-11-29T15:28:31.863Z,98708.56
2023-11-29T15:30:58.505Z,98707.63
2023-11-29T15:33:25.551Z,98705.06
2023-11-29T15:35:55.111Z,98699.84
2023-11-29T15:38:22.782Z,98703.28
2023-11-29T15:40:50.754Z,98704.16
2023-11-29T15:43:17.430Z,98705.06
2023-11-29T15:45:44.779Z,98707.63
2023-11-29T15:48:11.687Z,98705.91
2023-11-29T15:50:39.112Z,98708.53
2023-11-29T15:53:05.812Z,98707.69
2023-11-29T15:55:33.179Z,98707.69
2023-11-29T15:58:01.153Z,98713.00
2023-11-29T16:00:28.526Z,98713.78
2023-11-29T16:02:55.784Z,98712.09
2023-11-29T16:05:23.274Z,98717.31
2023-11-29T16:07:51.771Z,98716.41
2023-11-29T16:10:21.553Z,98713.78
2023-11-29T16:12:48.253Z,98715.53
2023-11-29T16:15:15.625Z,98719.00
2023-11-29T16:17:42.565Z,98720.78
2023-11-29T16:20:10.514Z,98715.53
2023-11-29T16:22:37.248Z,98722.56
2023-11-29T16:25:04.923Z,98717.31
2023-11-29T16:27:36.370Z,98714.69
2023-11-29T16:30:06.138Z,98721.72
2023-11-29T16:32:34.081Z,98719.16
2023-11-29T16:35:01.551Z,98717.47
2023-11-29T16:37:28.354Z,98725.25
2023-11-29T16:39:57.621Z,98727.06
2023-11-29T16:42:25.196Z,98728.00
2023-11-29T16:44:52.859Z,98726.19
2023-11-29T16:47:19.905Z,98727.94
2023-11-29T16:49:47.154Z,98731.38
2023-11-29T16:52:13.895Z,98721.72
2023-11-29T16:54:41.313Z,98721.66
2023-11-29T16:57:08.566Z,98724.28
2023-11-29T16:59:37.488Z,98723.41
2023-11-29T17:02:04.648Z,98725.19
2023-11-29T17:04:31.734Z,98727.88
2023-11-29T17:06:59.094Z,98727.94
2023-11-29T17:09:25.836Z,98726.09
2023-11-29T17:11:53.345Z,98726.97
2023-11-29T17:14:20.073Z,98732.31
2023-11-29T17:16:47.221Z,98738.34
2023-11-29T17:19:13.914Z,98731.25
2023-11-29T17:21:41.372Z,98731.19
2023-11-29T17:24:08.468Z,98738.97
2023-11-29T17:26:37.436Z,98732.84
2023-11-29T17:29:04.140Z,98730.25
2023-11-29T17:31:31.974Z,98730.25
2023-11-29T17:33:58.732Z,98730.09
2023-11-29T17:36:26.115Z,98734.50
2023-11-29T17:38:52.883Z,98732.72
2023-11-29T17:41:20.405Z,98736.28
2023-11-29T17:43:47.236Z,98731.00
2023-11-29T17:46:14.347Z,98731.03
2023-11-29T17:48:41.324Z,98718.78
2023-11-29T17:51:09.399Z,98721.34
2023-11-29T17:53:36.183Z,98720.53
2023-11-29T17:56:03.297Z,98718.84
2023-11-29T17:58:30.679Z,98723.41
2023-11-29T18:00:57.333Z,98724.28
2023-11-29T18:03:24.852Z,98726.81
2023-11-29T18:05:51.708Z,98729.47
2023-11-29T18:08:19.192Z,98727.66
2023-11-29T18:10:51.499Z,98727.66
2023-11-29T18:13:21.275Z,98728.53
2023-11-29T18:15:48.666Z,98729.41
2023-11-29T18:18:16.180Z,98732.97
2023-11-29T18:20:44.267Z,98728.50
2023-11-29T18:23:11.665Z,98728.50
2023-11-29T18:25:48.290Z,98735.44
2023-11-29T18:28:23.855Z,98738.09
2023-11-29T18:30:50.681Z,98740.75
2023-11-29T18:33:18.362Z,98745.13
2023-11-29T18:35:45.191Z,98748.66
2023-11-29T18:38:12.637Z,98752.19
2023-11-29T18:40:39.995Z,98754.78
2023-11-29T18:43:08.164Z,98741.59
2023-11-29T18:45:35.098Z,98738.81
2023-11-29T18:48:03.823Z,98732.03
2023-11-29T18:50:30.600Z,98730.47
2023-11-29T18:52:57.985Z,98731.31
2023-11-29T18:55:24.661Z,98733.03
2023-11-29T18:57:52.010Z,98732.19
2023-11-29T19:00:19.055Z,98734.81
2023-11-29T19:02:46.831Z,98733.09
2023-11-29T19:05:14.100Z,98739.25
2023-11-29T19:07:42.539Z,98732.13
2023-11-29T19:10:10.014Z,98736.56
2023-11-29T19:12:39.451Z,98737.47
2023-11-29T19:15:06.903Z,98737.47
2023-11-29T19:17:33.989Z,98734.94
2023-11-29T19:20:00.979Z,98743.75
2023-11-29T19:22:28.772Z,98739.38
2023-11-29T19:24:55.734Z,98744.66
2023-11-29T19:27:23.236Z,98743.81
2023-11-29T19:29:50.000Z,98741.13
2023-11-29T19:32:17.433Z,98744.56
2023-11-29T19:34:44.198Z,98743.72
2023-11-29T19:37:13.568Z,98753.19
2023-11-29T19:39:40.936Z,98760.19
2023-11-29T19:42:08.013Z,98764.50
2023-11-29T19:44:35.441Z,98754.91
2023-11-29T19:47:10.245Z,98755.75
2023-11-29T19:49:42.022Z,98759.97
2023-11-29T19:52:11.911Z,98762.53
2023-11-29T19:54:39.280Z,98758.97
2023-11-29T19:57:06.081Z,98769.44
2023-11-29T19:59:33.155Z,98769.44
2023-11-29T20:01:59.885Z,98771.22
2023-11-29T20:04:27.243Z,98776.44
2023-11-29T20:06:53.873Z,98779.84
2023-11-29T20:09:22.310Z,98781.56
2023-11-29T20:11:49.668Z,98772.91
2023-11-29T20:14:22.396Z,98774.72
2023-11-29T20:16:53.271Z,98780.63
2023-11-29T20:19:20.768Z,98771.88
2023-11-29T20:21:47.382Z,98773.69
2023-11-29T20:24:14.784Z,98775.47
2023-11-29T20:26:41.455Z,98768.47
2023-11-29T20:29:08.879Z,98776.41
2023-11-29T20:31:36.514Z,98780.75
2023-11-29T20:34:09.759Z,98776.34
2023-11-29T20:36:41.573Z,98783.34
2023-11-29T20:39:08.836Z,98783.25
2023-11-29T20:41:35.442Z,98777.09
2023-11-29T20:44:03.237Z,98779.72
2023-11-29T20:46:29.955Z,98777.94
2023-11-29T20:48:57.481Z,98779.78
2023-11-29T20:51:24.999Z,98775.34
2023-11-29T20:53:53.715Z,98776.19
2023-11-29T20:56:20.622Z,98771.00
2023-11-29T20:59:07.460Z,98769.31
2023-11-29T21:01:34.281Z,98777.94
2023-11-29T21:04:01.581Z,98771.00
2023-11-29T21:06:28.291Z,98773.63
2023-11-29T21:08:55.614Z,98771.97
2023-11-29T21:11:23.372Z,98776.41
2023-11-29T21:13:50.625Z,98773.88
2023-11-29T21:16:18.064Z,98764.38
2023-11-29T21:18:45.739Z,98776.53
2023-11-29T21:21:13.097Z,98776.59
2023-11-29T21:23:40.480Z,98769.63
2023-11-29T21:26:07.190Z,98776.63
2023-11-29T21:28:36.886Z,98761.75
